Welkom op de weersite van Veghel e.o.

Webcam Veghel  Webcam Veghel


Steenuil Veghel  Steenuil Veghel


Onweer radar Meer informatie blitzortung!


Regen radar Meer informatie rain snow radar


U vindt ons ook hier:

Het Weer Aktueel

European Weather Network

Benelux Weer Netwerk

AWEKAS


METAR rapporten vliegvelden

   
EHAM - Amsterdam
Gewijzigd: 30-01-2023 22:25
Licht bewolkt  
Licht bewolkt  
   Wind: Westen 14.8 km/h
Wind: Westen 14.8 km/h
Temperatuur: 5°C
Voelt als: 2°C
Dauwpunt: 2°C
Vochtigheid: 81%
Barometer: 1024 hPa
Bewolking: Few Clouds
Zicht: meer dan 10 km
Bewolking: Licht bewolkt 2400 ft
EHAM 302125Z 28008KT 250V310 9999 FEW024 05/02 Q1024 NOSIG
EHEH - Eindhoven
Gewijzigd: 30-01-2023 22:25
Helder  
Helder  
   Wind: WZW 14.8 km/h
Wind: WZW 14.8 km/h
Temperatuur: 3°C
Voelt als: -1°C
Dauwpunt: 1°C
Vochtigheid: 87%
Barometer: 1025 hPa
Bewolking: Clear
Zicht: meer dan 10 km
Bewolking: Helder ft
EHEH 302125Z AUTO 24008KT 220V290 9999 NCD 03/01 Q1025 BLU NOSIG
EHGR - Gilze/Rijen
Gewijzigd: 30-01-2023 22:25
Helder  
Helder  
   Wind: WZW 9.3 km/h
Wind: WZW 9.3 km/h
Temperatuur: 4°C
Voelt als: 2°C
Dauwpunt: 2°C
Vochtigheid: 87%
Barometer: 1025 hPa
Bewolking: Clear
Zicht: meer dan 10 km
Bewolking: Helder ft
EHGR 302125Z AUTO 25005KT 9999 NCD 04/02 Q1025 BLU NOSIG
EHBK - Maastricht
Gewijzigd: 30-01-2023 22:25
Grotendeels bewolkt  
Grotendeels bewolkt  
   Wind: Westen 7.4 km/h
Wind: Westen 7.4 km/h
Temperatuur: 4°C
Voelt als: 2°C
Dauwpunt: 1°C
Vochtigheid: 81%
Barometer: 1025 hPa
Bewolking: Mostly Cloudy
Zicht: meer dan 10 km
Bewolking: Grotendeels bewolkt 3600 ft
EHBK 302125Z AUTO 27004KT 220V310 9999 BKN036 04/01 Q1025 NOSIG
EHVK - Volkel
Gewijzigd: 30-01-2023 22:25
Licht bewolkt  
Licht bewolkt  
   Wind: Westen 11.1 km/h
Wind: Westen 11.1 km/h
Temperatuur: 5°C
Voelt als: 2°C
Dauwpunt: 2°C
Vochtigheid: 81%
Barometer: 1024 hPa
Bewolking: Few Clouds
Zicht: meer dan 10 km
Bewolking: Licht bewolkt 2600 ft
EHVK 302125Z AUTO 27006KT 9999 FEW026 05/02 Q1024 BLU
EHFS - Vlissingen
Gewijzigd: 30-01-2023 22:25
Licht bewolkt  
Licht bewolkt  
   Wind: ZZW 20.4 km/h
Wind: ZZW 20.4 km/h
Temperatuur: 5°C
Voelt als: 1°C
Dauwpunt: 4°C
Vochtigheid: 93%
Barometer: 1026 hPa
Bewolking: Few Clouds
Zicht: meer dan 10 km
Bewolking: Licht bewolkt 4300 ft
EHFS 302125Z AUTO 21011KT 9999 FEW043/// 05/04 Q1026

Script ontwikkeld door  Saratoga-weather.org Aangepast voor de template door  Weerstation Leuven

Apparatuur in gebruik:

Weerstation
Davis VP2

Weerprogramma
WeatherLink

Weercomputer
Sponsor

Webleverancier
My provider

Davis VP2

WeatherLink

Sponsor

My provider